sensor_id;sensor_type;location;lat;lon;timestamp;P1;durP1;ratioP1;P2;durP2;ratioP2
41635;SDS011;27623;51.966;4.602;2022-12-29T00:01:37;2.58;;;1.20;;
41635;SDS011;27623;51.966;4.602;2022-12-29T00:04:03;5.22;;;1.30;;
41635;SDS011;27623;51.966;4.602;2022-12-29T00:06:29;1.95;;;0.95;;
41635;SDS011;27623;51.966;4.602;2022-12-29T00:08:55;4.80;;;1.30;;
41635;SDS011;27623;51.966;4.602;2022-12-29T00:11:22;2.03;;;0.93;;
41635;SDS011;27623;51.966;4.602;2022-12-29T00:13:49;3.10;;;1.90;;
41635;SDS011;27623;51.966;4.602;2022-12-29T00:16:34;2.47;;;1.33;;
41635;SDS011;27623;51.966;4.602;2022-12-29T00:19:01;2.75;;;0.93;;
41635;SDS011;27623;51.966;4.602;2022-12-29T00:21:27;3.17;;;1.42;;
41635;SDS011;27623;51.966;4.602;2022-12-29T00:24:15;2.35;;;0.98;;
41635;SDS011;27623;51.966;4.602;2022-12-29T00:26:57;1.20;;;0.70;;
41635;SDS011;27623;51.966;4.602;2022-12-29T00:29:42;3.00;;;1.27;;
41635;SDS011;27623;51.966;4.602;2022-12-29T00:32:26;2.67;;;0.75;;
41635;SDS011;27623;51.966;4.602;2022-12-29T00:35:11;1.50;;;0.73;;
41635;SDS011;27623;51.966;4.602;2022-12-29T00:37:43;2.92;;;0.90;;
41635;SDS011;27623;51.966;4.602;2022-12-29T00:40:29;3.13;;;1.40;;
41635;SDS011;27623;51.966;4.602;2022-12-29T00:43:13;4.43;;;1.30;;
41635;SDS011;27623;51.966;4.602;2022-12-29T00:45:57;2.28;;;0.95;;
41635;SDS011;27623;51.966;4.602;2022-12-29T00:48:23;3.25;;;1.05;;
41635;SDS011;27623;51.966;4.602;2022-12-29T00:51:07;2.08;;;1.10;;
41635;SDS011;27623;51.966;4.602;2022-12-29T00:53:33;4.15;;;1.50;;
41635;SDS011;27623;51.966;4.602;2022-12-29T00:55:59;1.35;;;0.88;;
41635;SDS011;27623;51.966;4.602;2022-12-29T00:58:28;1.98;;;0.90;;
41635;SDS011;27623;51.966;4.602;2022-12-29T01:01:03;2.38;;;1.05;;
41635;SDS011;27623;51.966;4.602;2022-12-29T01:03:30;3.28;;;1.10;;
41635;SDS011;27623;51.966;4.602;2022-12-29T01:05:56;4.10;;;1.38;;
41635;SDS011;27623;51.966;4.602;2022-12-29T01:08:21;1.75;;;1.00;;
41635;SDS011;27623;51.966;4.602;2022-12-29T01:10:57;1.95;;;1.08;;
41635;SDS011;27623;51.966;4.602;2022-12-29T01:13:26;2.40;;;1.02;;
41635;SDS011;27623;51.966;4.602;2022-12-29T01:15:51;2.28;;;1.17;;
41635;SDS011;27623;51.966;4.602;2022-12-29T01:18:18;4.43;;;0.80;;
41635;SDS011;27623;51.966;4.602;2022-12-29T01:20:43;2.17;;;0.77;;
41635;SDS011;27623;51.966;4.602;2022-12-29T01:23:09;1.70;;;0.88;;
41635;SDS011;27623;51.966;4.602;2022-12-29T01:25:35;5.07;;;1.42;;
41635;SDS011;27623;51.966;4.602;2022-12-29T01:28:01;3.17;;;1.40;;
41635;SDS011;27623;51.966;4.602;2022-12-29T01:30:26;3.42;;;1.13;;
41635;SDS011;27623;51.966;4.602;2022-12-29T01:32:52;2.17;;;0.90;;
41635;SDS011;27623;51.966;4.602;2022-12-29T01:35:17;1.83;;;1.00;;
41635;SDS011;27623;51.966;4.602;2022-12-29T01:37:43;1.80;;;1.10;;
41635;SDS011;27623;51.966;4.602;2022-12-29T01:40:09;4.80;;;1.23;;
41635;SDS011;27623;51.966;4.602;2022-12-29T01:42:37;4.65;;;1.38;;
41635;SDS011;27623;51.966;4.602;2022-12-29T01:45:15;2.05;;;1.23;;
41635;SDS011;27623;51.966;4.602;2022-12-29T01:50:28;5.40;;;1.25;;
41635;SDS011;27623;51.966;4.602;2022-12-29T01:53:02;1.85;;;0.70;;
41635;SDS011;27623;51.966;4.602;2022-12-29T01:55:33;8.60;;;1.10;;
41635;SDS011;27623;51.966;4.602;2022-12-29T01:58:03;4.35;;;0.88;;
41635;SDS011;27623;51.966;4.602;2022-12-29T02:00:31;3.35;;;1.00;;
41635;SDS011;27623;51.966;4.602;2022-12-29T02:02:57;3.60;;;0.93;;
41635;SDS011;27623;51.966;4.602;2022-12-29T02:05:25;1.65;;;0.50;;
41635;SDS011;27623;51.966;4.602;2022-12-29T02:07:55;3.90;;;0.90;;
41635;SDS011;27623;51.966;4.602;2022-12-29T02:10:21;3.10;;;0.98;;
41635;SDS011;27623;51.966;4.602;2022-12-29T02:12:50;2.53;;;0.93;;
41635;SDS011;27623;51.966;4.602;2022-12-29T02:15:16;1.85;;;0.75;;
41635;SDS011;27623;51.966;4.602;2022-12-29T02:25:41;4.38;;;1.45;;
41635;SDS011;27623;51.966;4.602;2022-12-29T02:31:23;4.95;;;0.90;;
41635;SDS011;27623;51.966;4.602;2022-12-29T02:34:37;4.15;;;1.17;;
41635;SDS011;27623;51.966;4.602;2022-12-29T02:37:30;2.58;;;0.85;;
41635;SDS011;27623;51.966;4.602;2022-12-29T02:46:07;4.57;;;0.70;;
41635;SDS011;27623;51.966;4.602;2022-12-29T02:48:43;3.10;;;1.10;;
41635;SDS011;27623;51.966;4.602;2022-12-29T02:51:15;10.90;;;1.17;;
41635;SDS011;27623;51.966;4.602;2022-12-29T02:53:45;10.95;;;2.22;;
41635;SDS011;27623;51.966;4.602;2022-12-29T02:56:30;8.85;;;1.13;;
41635;SDS011;27623;51.966;4.602;2022-12-29T02:58:55;8.15;;;1.08;;
41635;SDS011;27623;51.966;4.602;2022-12-29T03:15:54;5.68;;;0.70;;
41635;SDS011;27623;51.966;4.602;2022-12-29T03:18:41;4.57;;;1.08;;
41635;SDS011;27623;51.966;4.602;2022-12-29T03:21:43;5.72;;;1.00;;
41635;SDS011;27623;51.966;4.602;2022-12-29T03:24:30;7.15;;;0.80;;
41635;SDS011;27623;51.966;4.602;2022-12-29T03:27:00;5.95;;;1.13;;
41635;SDS011;27623;51.966;4.602;2022-12-29T03:29:30;4.85;;;0.60;;
41635;SDS011;27623;51.966;4.602;2022-12-29T03:31:58;5.82;;;0.90;;
41635;SDS011;27623;51.966;4.602;2022-12-29T03:34:26;5.90;;;1.00;;
41635;SDS011;27623;51.966;4.602;2022-12-29T03:36:55;3.22;;;0.50;;
41635;SDS011;27623;51.966;4.602;2022-12-29T03:39:29;6.03;;;0.80;;
41635;SDS011;27623;51.966;4.602;2022-12-29T03:41:57;7.00;;;0.88;;
41635;SDS011;27623;51.966;4.602;2022-12-29T03:44:36;10.00;;;0.90;;
41635;SDS011;27623;51.966;4.602;2022-12-29T03:47:05;4.70;;;0.80;;
41635;SDS011;27623;51.966;4.602;2022-12-29T03:49:31;3.20;;;0.70;;
41635;SDS011;27623;51.966;4.602;2022-12-29T03:51:57;9.27;;;1.08;;
41635;SDS011;27623;51.966;4.602;2022-12-29T03:54:22;4.25;;;0.82;;
41635;SDS011;27623;51.966;4.602;2022-12-29T03:56:48;6.75;;;0.80;;
41635;SDS011;27623;51.966;4.602;2022-12-29T03:59:14;7.38;;;1.70;;
41635;SDS011;27623;51.966;4.602;2022-12-29T04:01:39;9.10;;;0.95;;
41635;SDS011;27623;51.966;4.602;2022-12-29T04:04:05;4.75;;;0.98;;
41635;SDS011;27623;51.966;4.602;2022-12-29T04:06:31;10.18;;;0.93;;
41635;SDS011;27623;51.966;4.602;2022-12-29T04:08:56;10.65;;;1.40;;
41635;SDS011;27623;51.966;4.602;2022-12-29T04:11:22;5.43;;;1.40;;
41635;SDS011;27623;51.966;4.602;2022-12-29T04:13:47;9.30;;;1.80;;
41635;SDS011;27623;51.966;4.602;2022-12-29T04:16:13;12.43;;;1.52;;
41635;SDS011;27623;51.966;4.602;2022-12-29T04:18:39;6.97;;;1.10;;
41635;SDS011;27623;51.966;4.602;2022-12-29T04:21:05;11.20;;;1.70;;
41635;SDS011;27623;51.966;4.602;2022-12-29T04:23:32;13.40;;;1.90;;
41635;SDS011;27623;51.966;4.602;2022-12-29T04:26:00;9.07;;;1.10;;
41635;SDS011;27623;51.966;4.602;2022-12-29T04:28:26;7.25;;;1.15;;
41635;SDS011;27623;51.966;4.602;2022-12-29T04:30:52;7.82;;;1.40;;
41635;SDS011;27623;51.966;4.602;2022-12-29T04:33:18;7.07;;;1.23;;
41635;SDS011;27623;51.966;4.602;2022-12-29T04:35:44;9.38;;;1.13;;
41635;SDS011;27623;51.966;4.602;2022-12-29T04:38:10;15.70;;;1.55;;
41635;SDS011;27623;51.966;4.602;2022-12-29T04:40:37;7.18;;;1.27;;
41635;SDS011;27623;51.966;4.602;2022-12-29T04:43:03;9.98;;;1.38;;
41635;SDS011;27623;51.966;4.602;2022-12-29T04:45:29;12.70;;;2.05;;
41635;SDS011;27623;51.966;4.602;2022-12-29T04:47:55;11.55;;;1.98;;
41635;SDS011;27623;51.966;4.602;2022-12-29T04:50:20;9.75;;;1.95;;
41635;SDS011;27623;51.966;4.602;2022-12-29T04:52:46;14.15;;;2.35;;
41635;SDS011;27623;51.966;4.602;2022-12-29T04:55:11;11.18;;;1.52;;
41635;SDS011;27623;51.966;4.602;2022-12-29T04:57:37;14.10;;;1.55;;
41635;SDS011;27623;51.966;4.602;2022-12-29T05:00:04;9.73;;;1.50;;
41635;SDS011;27623;51.966;4.602;2022-12-29T05:02:32;6.50;;;1.60;;
41635;SDS011;27623;51.966;4.602;2022-12-29T05:04:57;9.27;;;1.48;;
41635;SDS011;27623;51.966;4.602;2022-12-29T05:07:23;10.68;;;1.17;;
41635;SDS011;27623;51.966;4.602;2022-12-29T05:09:50;11.27;;;2.70;;
41635;SDS011;27623;51.966;4.602;2022-12-29T05:12:16;12.80;;;2.05;;
41635;SDS011;27623;51.966;4.602;2022-12-29T05:14:41;11.98;;;1.77;;
41635;SDS011;27623;51.966;4.602;2022-12-29T05:17:07;12.80;;;1.73;;
41635;SDS011;27623;51.966;4.602;2022-12-29T05:19:33;16.20;;;2.20;;
41635;SDS011;27623;51.966;4.602;2022-12-29T05:21:58;12.80;;;3.80;;
41635;SDS011;27623;51.966;4.602;2022-12-29T05:24:24;11.77;;;2.28;;
41635;SDS011;27623;51.966;4.602;2022-12-29T05:26:49;9.50;;;1.42;;
41635;SDS011;27623;51.966;4.602;2022-12-29T05:29:15;14.60;;;1.65;;
41635;SDS011;27623;51.966;4.602;2022-12-29T05:31:40;10.63;;;1.60;;
41635;SDS011;27623;51.966;4.602;2022-12-29T05:34:06;17.25;;;1.77;;
41635;SDS011;27623;51.966;4.602;2022-12-29T05:36:31;17.02;;;1.42;;
41635;SDS011;27623;51.966;4.602;2022-12-29T05:38:57;11.10;;;1.65;;
41635;SDS011;27623;51.966;4.602;2022-12-29T05:41:22;20.02;;;2.20;;
41635;SDS011;27623;51.966;4.602;2022-12-29T05:43:48;12.55;;;1.40;;
41635;SDS011;27623;51.966;4.602;2022-12-29T05:46:13;13.27;;;2.05;;
41635;SDS011;27623;51.966;4.602;2022-12-29T05:48:42;13.10;;;2.33;;
41635;SDS011;27623;51.966;4.602;2022-12-29T05:51:07;14.82;;;1.85;;
41635;SDS011;27623;51.966;4.602;2022-12-29T05:53:33;15.57;;;2.53;;
41635;SDS011;27623;51.966;4.602;2022-12-29T05:55:59;11.57;;;1.98;;
41635;SDS011;27623;51.966;4.602;2022-12-29T05:58:24;13.55;;;1.75;;
41635;SDS011;27623;51.966;4.602;2022-12-29T06:00:50;12.77;;;1.70;;
41635;SDS011;27623;51.966;4.602;2022-12-29T06:03:16;15.52;;;1.85;;
41635;SDS011;27623;51.966;4.602;2022-12-29T06:05:41;11.00;;;1.60;;
41635;SDS011;27623;51.966;4.602;2022-12-29T06:08:10;12.50;;;1.85;;
41635;SDS011;27623;51.966;4.602;2022-12-29T06:10:36;20.02;;;2.15;;
41635;SDS011;27623;51.966;4.602;2022-12-29T06:13:01;15.55;;;1.55;;
41635;SDS011;27623;51.966;4.602;2022-12-29T06:15:28;15.65;;;2.20;;
41635;SDS011;27623;51.966;4.602;2022-12-29T06:17:54;13.13;;;2.03;;
41635;SDS011;27623;51.966;4.602;2022-12-29T06:20:20;12.55;;;2.00;;
41635;SDS011;27623;51.966;4.602;2022-12-29T06:22:46;14.70;;;2.03;;
41635;SDS011;27623;51.966;4.602;2022-12-29T06:25:12;18.25;;;1.83;;
41635;SDS011;27623;51.966;4.602;2022-12-29T06:27:38;13.45;;;1.80;;
41635;SDS011;27623;51.966;4.602;2022-12-29T06:30:03;10.70;;;2.00;;
41635;SDS011;27623;51.966;4.602;2022-12-29T06:32:29;18.85;;;1.70;;
41635;SDS011;27623;51.966;4.602;2022-12-29T06:34:55;9.63;;;1.70;;
41635;SDS011;27623;51.966;4.602;2022-12-29T06:37:21;19.88;;;2.22;;
41635;SDS011;27623;51.966;4.602;2022-12-29T06:39:47;14.27;;;2.63;;
41635;SDS011;27623;51.966;4.602;2022-12-29T06:42:13;16.52;;;3.17;;
41635;SDS011;27623;51.966;4.602;2022-12-29T06:44:38;13.20;;;2.55;;
41635;SDS011;27623;51.966;4.602;2022-12-29T06:47:03;11.70;;;1.98;;
41635;SDS011;27623;51.966;4.602;2022-12-29T06:49:29;14.15;;;1.80;;
41635;SDS011;27623;51.966;4.602;2022-12-29T06:51:54;9.18;;;1.55;;
41635;SDS011;27623;51.966;4.602;2022-12-29T06:54:23;12.52;;;1.33;;
41635;SDS011;27623;51.966;4.602;2022-12-29T06:56:48;9.07;;;1.45;;
41635;SDS011;27623;51.966;4.602;2022-12-29T06:59:14;10.65;;;1.60;;
41635;SDS011;27623;51.966;4.602;2022-12-29T07:01:41;10.60;;;1.73;;
41635;SDS011;27623;51.966;4.602;2022-12-29T07:04:07;10.73;;;2.17;;
41635;SDS011;27623;51.966;4.602;2022-12-29T07:06:32;10.77;;;1.30;;
41635;SDS011;27623;51.966;4.602;2022-12-29T07:08:58;9.68;;;2.08;;
41635;SDS011;27623;51.966;4.602;2022-12-29T07:11:24;8.05;;;1.92;;
41635;SDS011;27623;51.966;4.602;2022-12-29T07:13:49;18.42;;;2.10;;
41635;SDS011;27623;51.966;4.602;2022-12-29T07:16:15;12.80;;;1.77;;
41635;SDS011;27623;51.966;4.602;2022-12-29T07:18:41;9.73;;;1.50;;
41635;SDS011;27623;51.966;4.602;2022-12-29T07:21:07;17.08;;;1.65;;
41635;SDS011;27623;51.966;4.602;2022-12-29T07:23:32;11.90;;;1.38;;
41635;SDS011;27623;51.966;4.602;2022-12-29T07:26:01;11.27;;;2.03;;
41635;SDS011;27623;51.966;4.602;2022-12-29T07:28:28;12.15;;;1.63;;
41635;SDS011;27623;51.966;4.602;2022-12-29T07:30:54;11.35;;;1.67;;
41635;SDS011;27623;51.966;4.602;2022-12-29T07:33:20;7.78;;;1.17;;
41635;SDS011;27623;51.966;4.602;2022-12-29T07:35:45;12.27;;;1.27;;
41635;SDS011;27623;51.966;4.602;2022-12-29T07:38:11;10.73;;;1.48;;
41635;SDS011;27623;51.966;4.602;2022-12-29T07:40:36;11.00;;;1.85;;
41635;SDS011;27623;51.966;4.602;2022-12-29T07:43:02;14.65;;;2.60;;
41635;SDS011;27623;51.966;4.602;2022-12-29T07:45:29;15.35;;;2.20;;
41635;SDS011;27623;51.966;4.602;2022-12-29T07:47:55;9.07;;;1.67;;
41635;SDS011;27623;51.966;4.602;2022-12-29T07:50:21;10.93;;;1.60;;
41635;SDS011;27623;51.966;4.602;2022-12-29T07:52:46;8.57;;;1.40;;
41635;SDS011;27623;51.966;4.602;2022-12-29T07:55:13;10.05;;;1.70;;
41635;SDS011;27623;51.966;4.602;2022-12-29T07:57:41;18.27;;;1.95;;
41635;SDS011;27623;51.966;4.602;2022-12-29T08:00:08;11.75;;;2.33;;
41635;SDS011;27623;51.966;4.602;2022-12-29T08:02:34;13.07;;;3.13;;
41635;SDS011;27623;51.966;4.602;2022-12-29T08:05:00;13.23;;;2.05;;
41635;SDS011;27623;51.966;4.602;2022-12-29T08:07:26;14.70;;;1.95;;
41635;SDS011;27623;51.966;4.602;2022-12-29T08:09:52;13.40;;;2.22;;
41635;SDS011;27623;51.966;4.602;2022-12-29T08:12:18;23.98;;;2.38;;
41635;SDS011;27623;51.966;4.602;2022-12-29T08:14:43;16.42;;;2.20;;
41635;SDS011;27623;51.966;4.602;2022-12-29T08:17:09;14.38;;;2.42;;
41635;SDS011;27623;51.966;4.602;2022-12-29T08:19:35;19.13;;;2.00;;
41635;SDS011;27623;51.966;4.602;2022-12-29T08:22:01;16.23;;;2.60;;
41635;SDS011;27623;51.966;4.602;2022-12-29T08:24:26;11.57;;;2.90;;
41635;SDS011;27623;51.966;4.602;2022-12-29T08:26:52;9.88;;;2.20;;
41635;SDS011;27623;51.966;4.602;2022-12-29T08:29:17;14.32;;;2.53;;
41635;SDS011;27623;51.966;4.602;2022-12-29T08:31:43;10.45;;;1.42;;
41635;SDS011;27623;51.966;4.602;2022-12-29T08:34:08;12.95;;;1.65;;
41635;SDS011;27623;51.966;4.602;2022-12-29T08:36:34;12.23;;;2.28;;
41635;SDS011;27623;51.966;4.602;2022-12-29T08:39:00;9.00;;;2.03;;
41635;SDS011;27623;51.966;4.602;2022-12-29T08:41:25;14.48;;;2.72;;
41635;SDS011;27623;51.966;4.602;2022-12-29T08:43:51;13.60;;;2.85;;
41635;SDS011;27623;51.966;4.602;2022-12-29T08:46:17;11.57;;;2.47;;
41635;SDS011;27623;51.966;4.602;2022-12-29T08:48:42;14.20;;;1.92;;
41635;SDS011;27623;51.966;4.602;2022-12-29T08:51:08;15.40;;;1.85;;
41635;SDS011;27623;51.966;4.602;2022-12-29T08:53:33;10.82;;;1.75;;
41635;SDS011;27623;51.966;4.602;2022-12-29T08:55:59;10.20;;;1.50;;
41635;SDS011;27623;51.966;4.602;2022-12-29T08:58:26;16.10;;;1.70;;
41635;SDS011;27623;51.966;4.602;2022-12-29T09:00:53;13.95;;;2.53;;
41635;SDS011;27623;51.966;4.602;2022-12-29T09:03:19;13.73;;;1.85;;
41635;SDS011;27623;51.966;4.602;2022-12-29T09:05:47;11.48;;;2.40;;
41635;SDS011;27623;51.966;4.602;2022-12-29T09:08:14;9.55;;;1.60;;
41635;SDS011;27623;51.966;4.602;2022-12-29T09:10:39;15.10;;;1.58;;
41635;SDS011;27623;51.966;4.602;2022-12-29T09:13:05;13.20;;;2.20;;
41635;SDS011;27623;51.966;4.602;2022-12-29T09:15:30;15.23;;;2.67;;
41635;SDS011;27623;51.966;4.602;2022-12-29T09:17:55;13.05;;;2.88;;
41635;SDS011;27623;51.966;4.602;2022-12-29T09:20:21;19.50;;;1.75;;
41635;SDS011;27623;51.966;4.602;2022-12-29T09:22:47;12.18;;;1.65;;
41635;SDS011;27623;51.966;4.602;2022-12-29T09:25:13;11.35;;;2.17;;
41635;SDS011;27623;51.966;4.602;2022-12-29T09:27:39;12.60;;;2.03;;
41635;SDS011;27623;51.966;4.602;2022-12-29T09:30:05;12.18;;;1.88;;
41635;SDS011;27623;51.966;4.602;2022-12-29T09:32:35;12.63;;;1.95;;
41635;SDS011;27623;51.966;4.602;2022-12-29T09:35:01;11.05;;;1.70;;
41635;SDS011;27623;51.966;4.602;2022-12-29T09:37:27;13.73;;;2.35;;
41635;SDS011;27623;51.966;4.602;2022-12-29T09:39:52;9.55;;;2.25;;
41635;SDS011;27623;51.966;4.602;2022-12-29T09:45:33;9.52;;;1.77;;
41635;SDS011;27623;51.966;4.602;2022-12-29T09:48:18;10.82;;;1.90;;
41635;SDS011;27623;51.966;4.602;2022-12-29T09:50:50;9.20;;;1.42;;
41635;SDS011;27623;51.966;4.602;2022-12-29T09:55:53;9.65;;;1.42;;
41635;SDS011;27623;51.966;4.602;2022-12-29T10:01:05;13.90;;;2.03;;
41635;SDS011;27623;51.966;4.602;2022-12-29T10:03:51;12.02;;;2.10;;
41635;SDS011;27623;51.966;4.602;2022-12-29T10:09:15;13.45;;;2.70;;
41635;SDS011;27623;51.966;4.602;2022-12-29T10:17:44;12.52;;;2.58;;
41635;SDS011;27623;51.966;4.602;2022-12-29T10:25:48;19.98;;;4.38;;
41635;SDS011;27623;51.966;4.602;2022-12-29T10:30:46;28.42;;;3.10;;
41635;SDS011;27623;51.966;4.602;2022-12-29T10:33:15;14.65;;;3.08;;
41635;SDS011;27623;51.966;4.602;2022-12-29T10:35:44;20.48;;;3.88;;
41635;SDS011;27623;51.966;4.602;2022-12-29T10:38:14;30.05;;;3.75;;
41635;SDS011;27623;51.966;4.602;2022-12-29T10:40:53;16.13;;;2.78;;
41635;SDS011;27623;51.966;4.602;2022-12-29T10:45:55;24.65;;;3.45;;
41635;SDS011;27623;51.966;4.602;2022-12-29T10:48:30;28.75;;;2.85;;
41635;SDS011;27623;51.966;4.602;2022-12-29T10:50:58;17.08;;;2.88;;
41635;SDS011;27623;51.966;4.602;2022-12-29T10:58:54;29.80;;;4.35;;
41635;SDS011;27623;51.966;4.602;2022-12-29T11:01:22;21.58;;;4.28;;
41635;SDS011;27623;51.966;4.602;2022-12-29T11:06:31;23.70;;;2.30;;
41635;SDS011;27623;51.966;4.602;2022-12-29T11:09:02;30.00;;;4.18;;
41635;SDS011;27623;51.966;4.602;2022-12-29T11:11:36;28.75;;;3.58;;
41635;SDS011;27623;51.966;4.602;2022-12-29T11:14:03;31.05;;;4.40;;
41635;SDS011;27623;51.966;4.602;2022-12-29T11:16:39;24.02;;;3.10;;
41635;SDS011;27623;51.966;4.602;2022-12-29T11:19:19;24.15;;;3.72;;
41635;SDS011;27623;51.966;4.602;2022-12-29T11:21:46;26.38;;;3.53;;
41635;SDS011;27623;51.966;4.602;2022-12-29T11:26:52;41.17;;;3.88;;
41635;SDS011;27623;51.966;4.602;2022-12-29T11:31:57;30.17;;;4.03;;
41635;SDS011;27623;51.966;4.602;2022-12-29T11:37:03;20.95;;;3.10;;
41635;SDS011;27623;51.966;4.602;2022-12-29T11:39:42;18.60;;;3.70;;
41635;SDS011;27623;51.966;4.602;2022-12-29T11:42:14;26.80;;;3.47;;
41635;SDS011;27623;51.966;4.602;2022-12-29T11:44:43;25.85;;;3.63;;
41635;SDS011;27623;51.966;4.602;2022-12-29T11:47:12;25.45;;;3.78;;
41635;SDS011;27623;51.966;4.602;2022-12-29T11:50:00;25.33;;;3.88;;
41635;SDS011;27623;51.966;4.602;2022-12-29T11:52:31;19.50;;;2.45;;
41635;SDS011;27623;51.966;4.602;2022-12-29T11:55:00;25.73;;;4.68;;
41635;SDS011;27623;51.966;4.602;2022-12-29T11:57:28;12.30;;;2.30;;
41635;SDS011;27623;51.966;4.602;2022-12-29T11:59:55;19.40;;;3.20;;
41635;SDS011;27623;51.966;4.602;2022-12-29T12:02:35;15.60;;;2.65;;
41635;SDS011;27623;51.966;4.602;2022-12-29T12:08:19;19.80;;;2.95;;
41635;SDS011;27623;51.966;4.602;2022-12-29T12:10:59;26.65;;;2.47;;
41635;SDS011;27623;51.966;4.602;2022-12-29T12:13:39;24.85;;;2.20;;
41635;SDS011;27623;51.966;4.602;2022-12-29T12:16:14;14.50;;;2.20;;
41635;SDS011;27623;51.966;4.602;2022-12-29T12:24:57;11.55;;;2.35;;
41635;SDS011;27623;51.966;4.602;2022-12-29T12:27:36;22.92;;;2.58;;
41635;SDS011;27623;51.966;4.602;2022-12-29T12:32:41;10.57;;;2.08;;
41635;SDS011;27623;51.966;4.602;2022-12-29T12:35:13;17.77;;;2.80;;
41635;SDS011;27623;51.966;4.602;2022-12-29T12:37:50;20.60;;;3.97;;
41635;SDS011;27623;51.966;4.602;2022-12-29T12:40:40;16.25;;;2.50;;
41635;SDS011;27623;51.966;4.602;2022-12-29T13:00:11;15.23;;;3.45;;
41635;SDS011;27623;51.966;4.602;2022-12-29T13:10:42;16.50;;;2.63;;
41635;SDS011;27623;51.966;4.602;2022-12-29T13:13:39;18.33;;;2.10;;
41635;SDS011;27623;51.966;4.602;2022-12-29T13:30:15;13.45;;;2.67;;
41635;SDS011;27623;51.966;4.602;2022-12-29T13:35:44;11.80;;;1.40;;
41635;SDS011;27623;51.966;4.602;2022-12-29T13:41:09;7.75;;;1.60;;
41635;SDS011;27623;51.966;4.602;2022-12-29T13:46:10;6.55;;;1.17;;
41635;SDS011;27623;51.966;4.602;2022-12-29T13:49:02;7.82;;;1.65;;
41635;SDS011;27623;51.966;4.602;2022-12-29T13:51:30;9.80;;;1.90;;
41635;SDS011;27623;51.966;4.602;2022-12-29T13:56:24;9.00;;;1.60;;
41635;SDS011;27623;51.966;4.602;2022-12-29T14:01:58;8.75;;;2.25;;
41635;SDS011;27623;51.966;4.602;2022-12-29T14:04:28;9.15;;;1.88;;
41635;SDS011;27623;51.966;4.602;2022-12-29T14:07:14;9.23;;;2.22;;
41635;SDS011;27623;51.966;4.602;2022-12-29T14:09:45;8.63;;;1.92;;
41635;SDS011;27623;51.966;4.602;2022-12-29T14:12:30;8.63;;;1.92;;
41635;SDS011;27623;51.966;4.602;2022-12-29T14:15:06;9.82;;;1.90;;
41635;SDS011;27623;51.966;4.602;2022-12-29T14:17:44;9.82;;;1.45;;
41635;SDS011;27623;51.966;4.602;2022-12-29T14:20:27;8.57;;;1.35;;
41635;SDS011;27623;51.966;4.602;2022-12-29T14:22:59;5.63;;;1.25;;
41635;SDS011;27623;51.966;4.602;2022-12-29T14:28:26;11.57;;;2.50;;
41635;SDS011;27623;51.966;4.602;2022-12-29T14:33:20;14.18;;;1.73;;
41635;SDS011;27623;51.966;4.602;2022-12-29T14:35:47;13.32;;;2.03;;
41635;SDS011;27623;51.966;4.602;2022-12-29T14:38:21;4.53;;;0.90;;
41635;SDS011;27623;51.966;4.602;2022-12-29T14:40:49;11.10;;;2.53;;
41635;SDS011;27623;51.966;4.602;2022-12-29T14:43:19;15.75;;;1.92;;
41635;SDS011;27623;51.966;4.602;2022-12-29T14:45:58;11.63;;;1.55;;
41635;SDS011;27623;51.966;4.602;2022-12-29T14:48:39;6.10;;;1.25;;
41635;SDS011;27623;51.966;4.602;2022-12-29T14:51:18;5.20;;;1.13;;
41635;SDS011;27623;51.966;4.602;2022-12-29T14:53:52;8.02;;;1.52;;
41635;SDS011;27623;51.966;4.602;2022-12-29T14:56:18;13.20;;;1.80;;
41635;SDS011;27623;51.966;4.602;2022-12-29T14:58:51;10.52;;;1.50;;
41635;SDS011;27623;51.966;4.602;2022-12-29T15:01:19;8.88;;;2.08;;
41635;SDS011;27623;51.966;4.602;2022-12-29T15:03:50;12.85;;;2.00;;
41635;SDS011;27623;51.966;4.602;2022-12-29T15:06:20;10.43;;;1.63;;
41635;SDS011;27623;51.966;4.602;2022-12-29T15:14:03;6.47;;;1.23;;
41635;SDS011;27623;51.966;4.602;2022-12-29T15:19:23;11.20;;;2.55;;
41635;SDS011;27623;51.966;4.602;2022-12-29T15:21:50;10.57;;;2.38;;
41635;SDS011;27623;51.966;4.602;2022-12-29T15:24:17;11.73;;;2.00;;
41635;SDS011;27623;51.966;4.602;2022-12-29T15:26:44;18.15;;;2.95;;
41635;SDS011;27623;51.966;4.602;2022-12-29T15:32:15;6.43;;;1.40;;
41635;SDS011;27623;51.966;4.602;2022-12-29T15:34:44;9.73;;;1.88;;
41635;SDS011;27623;51.966;4.602;2022-12-29T15:37:25;21.25;;;2.00;;
41635;SDS011;27623;51.966;4.602;2022-12-29T15:39:52;12.52;;;2.15;;
41635;SDS011;27623;51.966;4.602;2022-12-29T15:42:26;10.23;;;1.58;;
41635;SDS011;27623;51.966;4.602;2022-12-29T15:45:14;7.93;;;1.80;;
41635;SDS011;27623;51.966;4.602;2022-12-29T15:47:41;5.15;;;1.50;;
41635;SDS011;27623;51.966;4.602;2022-12-29T15:52:54;8.60;;;1.58;;
41635;SDS011;27623;51.966;4.602;2022-12-29T15:55:42;7.72;;;1.52;;
41635;SDS011;27623;51.966;4.602;2022-12-29T16:01:20;9.52;;;2.00;;
41635;SDS011;27623;51.966;4.602;2022-12-29T16:03:52;6.20;;;1.23;;
41635;SDS011;27623;51.966;4.602;2022-12-29T16:06:28;12.00;;;1.52;;
41635;SDS011;27623;51.966;4.602;2022-12-29T16:09:17;8.45;;;1.25;;
41635;SDS011;27623;51.966;4.602;2022-12-29T16:14:18;10.07;;;1.85;;
41635;SDS011;27623;51.966;4.602;2022-12-29T16:16:47;8.77;;;1.52;;
41635;SDS011;27623;51.966;4.602;2022-12-29T16:22:00;8.18;;;1.67;;
41635;SDS011;27623;51.966;4.602;2022-12-29T16:24:34;4.87;;;1.00;;
41635;SDS011;27623;51.966;4.602;2022-12-29T16:29:30;7.70;;;1.60;;
41635;SDS011;27623;51.966;4.602;2022-12-29T16:31:57;10.32;;;1.65;;
41635;SDS011;27623;51.966;4.602;2022-12-29T16:34:31;6.53;;;1.13;;
41635;SDS011;27623;51.966;4.602;2022-12-29T16:37:02;9.73;;;1.52;;
41635;SDS011;27623;51.966;4.602;2022-12-29T16:39:47;14.43;;;3.15;;
41635;SDS011;27623;51.966;4.602;2022-12-29T16:42:33;15.45;;;1.92;;
41635;SDS011;27623;51.966;4.602;2022-12-29T16:50:32;7.03;;;1.55;;
41635;SDS011;27623;51.966;4.602;2022-12-29T16:52:59;13.55;;;1.92;;
41635;SDS011;27623;51.966;4.602;2022-12-29T16:55:25;11.27;;;1.85;;
41635;SDS011;27623;51.966;4.602;2022-12-29T16:57:51;14.25;;;1.67;;
41635;SDS011;27623;51.966;4.602;2022-12-29T17:00:22;8.45;;;2.00;;
41635;SDS011;27623;51.966;4.602;2022-12-29T17:02:49;8.38;;;1.70;;
41635;SDS011;27623;51.966;4.602;2022-12-29T17:05:19;8.48;;;1.67;;
41635;SDS011;27623;51.966;4.602;2022-12-29T17:07:45;13.45;;;2.15;;
41635;SDS011;27623;51.966;4.602;2022-12-29T17:10:11;11.85;;;1.75;;
41635;SDS011;27623;51.966;4.602;2022-12-29T17:12:41;7.53;;;1.70;;
41635;SDS011;27623;51.966;4.602;2022-12-29T17:15:25;14.82;;;2.17;;
41635;SDS011;27623;51.966;4.602;2022-12-29T17:17:57;8.88;;;2.05;;
41635;SDS011;27623;51.966;4.602;2022-12-29T17:20:28;5.22;;;1.70;;
41635;SDS011;27623;51.966;4.602;2022-12-29T17:22:55;13.93;;;1.75;;
41635;SDS011;27623;51.966;4.602;2022-12-29T17:25:32;12.05;;;1.70;;
41635;SDS011;27623;51.966;4.602;2022-12-29T17:28:20;15.07;;;1.92;;
41635;SDS011;27623;51.966;4.602;2022-12-29T17:30:48;14.18;;;2.78;;
41635;SDS011;27623;51.966;4.602;2022-12-29T17:33:16;10.20;;;2.17;;
41635;SDS011;27623;51.966;4.602;2022-12-29T17:35:42;10.85;;;1.92;;
41635;SDS011;27623;51.966;4.602;2022-12-29T17:40:40;7.05;;;1.50;;
41635;SDS011;27623;51.966;4.602;2022-12-29T17:43:07;11.77;;;1.98;;
41635;SDS011;27623;51.966;4.602;2022-12-29T17:45:37;7.18;;;1.85;;
41635;SDS011;27623;51.966;4.602;2022-12-29T17:48:04;8.27;;;2.05;;
41635;SDS011;27623;51.966;4.602;2022-12-29T17:50:38;7.43;;;2.53;;
41635;SDS011;27623;51.966;4.602;2022-12-29T17:53:04;11.52;;;1.90;;
41635;SDS011;27623;51.966;4.602;2022-12-29T17:55:31;11.63;;;1.42;;
41635;SDS011;27623;51.966;4.602;2022-12-29T17:57:57;28.40;;;11.88;;